createdAt,value
2019-05-15T00:00:40.587Z,28.93
2019-05-15T00:03:08.824Z,27.43
2019-05-15T00:05:39.029Z,27.97
2019-05-15T00:08:09.214Z,28.97
2019-05-15T00:10:38.935Z,27.47
2019-05-15T00:13:08.978Z,27.47
2019-05-15T00:15:40.194Z,27.77
2019-05-15T00:18:08.826Z,27.70
2019-05-15T00:20:39.389Z,28.07
2019-05-15T00:23:08.518Z,28.30
2019-05-15T00:25:39.070Z,28.23
2019-05-15T00:28:09.102Z,27.73
2019-05-15T00:30:38.754Z,28.73
2019-05-15T00:33:08.942Z,28.47
2019-05-15T00:35:38.983Z,28.30
2019-05-15T00:38:13.331Z,29.43
2019-05-15T00:40:41.133Z,29.47
2019-05-15T00:43:09.181Z,29.17
2019-05-15T00:45:38.509Z,28.37
2019-05-15T00:48:08.916Z,29.50
2019-05-15T00:50:38.764Z,29.13
2019-05-15T00:53:08.640Z,29.40
2019-05-15T00:55:39.874Z,30.10
2019-05-15T00:58:08.898Z,28.83
2019-05-15T01:00:44.841Z,30.43
2019-05-15T01:03:13.401Z,29.50
2019-05-15T01:05:48.119Z,30.53
2019-05-15T01:08:15.776Z,29.03
2019-05-15T01:10:48.679Z,30.77
2019-05-15T01:13:16.026Z,29.57
2019-05-15T01:15:43.995Z,28.53
2019-05-15T01:18:14.934Z,29.33
2019-05-15T01:20:42.926Z,28.73
2019-05-15T01:23:12.600Z,29.93
2019-05-15T01:25:41.518Z,30.17
2019-05-15T01:28:18.151Z,28.53
2019-05-15T01:30:45.549Z,29.67
2019-05-15T01:33:36.252Z,28.97
2019-05-15T01:36:08.498Z,28.87
2019-05-15T01:38:38.861Z,28.50
2019-05-15T01:41:09.761Z,27.77
2019-05-15T01:43:38.214Z,28.33
2019-05-15T01:46:10.366Z,27.70
2019-05-15T01:48:49.329Z,26.40
2019-05-15T01:51:22.382Z,27.40
2019-05-15T01:53:50.665Z,25.77
2019-05-15T01:56:21.680Z,25.90
2019-05-15T01:58:49.770Z,26.57
2019-05-15T02:01:19.232Z,26.77
2019-05-15T02:03:49.542Z,25.33
2019-05-15T02:06:19.230Z,27.07
2019-05-15T02:11:31.276Z,26.07
2019-05-15T02:14:01.740Z,26.40
2019-05-15T02:16:33.303Z,26.53
2019-05-15T02:19:03.474Z,26.80
2019-05-15T02:21:37.872Z,26.40
2019-05-15T02:24:04.041Z,25.93
2019-05-15T02:26:35.567Z,25.53
2019-05-15T02:29:14.576Z,26.30
2019-05-15T02:31:43.315Z,24.77
2019-05-15T02:34:14.850Z,25.00
2019-05-15T02:36:43.105Z,26.07
2019-05-15T02:39:11.199Z,26.60
2019-05-15T02:41:39.816Z,26.33
2019-05-15T02:44:10.922Z,24.83
2019-05-15T02:46:39.160Z,25.50
2019-05-15T02:49:08.749Z,25.47
2019-05-15T02:51:39.895Z,22.87
2019-05-15T02:54:10.285Z,22.67
2019-05-15T02:56:39.230Z,23.37
2019-05-15T02:59:09.265Z,24.30
2019-05-15T03:01:39.991Z,24.33
2019-05-15T03:04:09.049Z,24.33
2019-05-15T03:06:38.814Z,23.70
2019-05-15T03:09:09.573Z,23.33
2019-05-15T03:11:40.948Z,24.10
2019-05-15T03:14:09.251Z,24.30
2019-05-15T03:16:39.504Z,24.67
2019-05-15T03:19:09.970Z,23.13
2019-05-15T03:21:38.874Z,23.77
2019-05-15T03:24:09.850Z,25.47
2019-05-15T03:26:39.305Z,23.83
2019-05-15T03:29:09.505Z,23.97
2019-05-15T03:31:56.722Z,23.43
2019-05-15T03:34:19.941Z,26.70
2019-05-15T03:36:37.000Z,24.87
2019-05-15T03:39:09.509Z,23.37
2019-05-15T03:41:39.184Z,22.53
2019-05-15T03:44:09.167Z,23.00
2019-05-15T03:46:42.598Z,24.93
2019-05-15T03:49:13.728Z,23.20
2019-05-15T03:51:45.629Z,24.13
2019-05-15T03:54:11.692Z,24.00
2019-05-15T03:56:42.714Z,22.87
2019-05-15T03:59:10.451Z,22.87
2019-05-15T04:01:43.743Z,22.37
2019-05-15T04:04:12.107Z,22.30
2019-05-15T04:06:40.407Z,23.17
2019-05-15T04:09:09.717Z,23.10
2019-05-15T04:11:39.847Z,22.73
2019-05-15T04:14:11.977Z,22.90
2019-05-15T04:16:43.698Z,23.77
2019-05-15T04:19:13.584Z,22.63
2019-05-15T04:21:49.143Z,22.37
2019-05-15T04:24:19.040Z,22.13
2019-05-15T04:26:48.667Z,21.63
2019-05-15T04:29:19.458Z,21.73
2019-05-15T04:31:59.937Z,22.03
2019-05-15T04:34:19.825Z,22.03
2019-05-15T04:36:49.726Z,21.90
2019-05-15T04:39:19.360Z,23.30
2019-05-15T04:41:49.953Z,22.23
2019-05-15T04:44:19.736Z,23.43
2019-05-15T04:46:49.786Z,23.70
2019-05-15T04:49:19.304Z,22.67
2019-05-15T04:51:53.289Z,23.47
2019-05-15T04:54:21.944Z,21.93
2019-05-15T04:56:50.066Z,21.83
2019-05-15T04:59:20.925Z,22.63
2019-05-15T05:02:12.981Z,21.97
2019-05-15T05:04:29.456Z,22.47
2019-05-15T05:06:58.665Z,21.20
2019-05-15T05:09:28.859Z,22.53
2019-05-15T05:11:58.243Z,22.47
2019-05-15T05:14:28.817Z,21.30
2019-05-15T05:16:59.273Z,21.07
2019-05-15T05:19:28.510Z,21.43
2019-05-15T05:21:58.454Z,20.97
2019-05-15T05:24:28.036Z,20.33
2019-05-15T05:26:58.067Z,20.73
2019-05-15T05:29:27.864Z,19.30
2019-05-15T05:31:58.455Z,20.20
2019-05-15T05:34:28.322Z,20.53
2019-05-15T05:36:58.724Z,20.53
2019-05-15T05:39:29.282Z,19.83
2019-05-15T05:41:58.755Z,19.77
2019-05-15T05:44:29.519Z,19.70
2019-05-15T05:47:00.809Z,18.93
2019-05-15T05:49:51.906Z,19.10
2019-05-15T05:52:24.042Z,19.23
2019-05-15T05:54:58.098Z,18.90
2019-05-15T05:57:28.064Z,18.57
2019-05-15T06:00:00.943Z,19.20
2019-05-15T06:02:47.406Z,19.83
2019-05-15T06:05:12.718Z,18.40
2019-05-15T06:07:50.079Z,17.93
2019-05-15T06:10:21.134Z,19.00
2019-05-15T06:13:08.680Z,18.13
2019-05-15T06:15:38.206Z,19.20
2019-05-15T06:18:10.142Z,18.87
2019-05-15T06:20:49.445Z,18.53
2019-05-15T06:23:23.160Z,18.20
2019-05-15T06:26:25.525Z,17.90
2019-05-15T06:28:58.286Z,19.10
2019-05-15T06:31:45.328Z,18.77
2019-05-15T06:34:45.806Z,18.67
2019-05-15T06:37:20.037Z,17.10
2019-05-15T06:39:48.697Z,18.27
2019-05-15T06:42:20.102Z,18.13
2019-05-15T06:44:50.542Z,18.60
2019-05-15T06:47:18.877Z,18.97
2019-05-15T06:49:50.534Z,18.33
2019-05-15T06:52:24.704Z,17.80
2019-05-15T06:55:09.345Z,17.47
2019-05-15T06:57:40.014Z,17.57
2019-05-15T07:00:16.069Z,17.77
2019-05-15T07:03:21.452Z,17.80
2019-05-15T07:05:43.802Z,17.10
2019-05-15T07:08:15.044Z,16.83
2019-05-15T07:10:51.986Z,17.03
2019-05-15T07:13:20.369Z,16.87
2019-05-15T07:15:50.659Z,17.07
2019-05-15T07:18:33.627Z,15.60
2019-05-15T07:21:30.949Z,16.17
2019-05-15T07:24:21.552Z,15.30
2019-05-15T07:27:04.351Z,15.73
2019-05-15T07:29:38.391Z,16.40
2019-05-15T07:32:08.035Z,15.17
2019-05-15T07:34:45.442Z,16.13
2019-05-15T07:37:19.013Z,15.53
2019-05-15T07:39:48.839Z,16.20
2019-05-15T07:42:34.702Z,15.17
2019-05-15T07:45:03.148Z,15.30
2019-05-15T07:47:38.780Z,16.17
2019-05-15T07:50:16.449Z,15.90
2019-05-15T07:53:02.803Z,15.70
2019-05-15T07:55:31.267Z,16.10
2019-05-15T07:58:00.042Z,16.30
2019-05-15T08:00:31.586Z,16.43
2019-05-15T08:03:00.674Z,15.13
2019-05-15T08:05:39.501Z,16.40
2019-05-15T08:08:08.697Z,16.03
2019-05-15T08:10:39.375Z,16.77
2019-05-15T08:13:09.041Z,16.23
2019-05-15T08:15:38.236Z,16.90
2019-05-15T08:18:12.688Z,15.70
2019-05-15T08:20:43.261Z,15.70
2019-05-15T08:23:29.367Z,16.63
2019-05-15T08:25:57.980Z,15.60
2019-05-15T08:28:38.439Z,15.67
2019-05-15T08:31:10.710Z,15.83
2019-05-15T08:33:42.746Z,15.87
2019-05-15T08:36:11.257Z,14.77
2019-05-15T08:38:39.125Z,15.20
2019-05-15T08:41:11.438Z,14.50
2019-05-15T08:43:38.238Z,16.20
2019-05-15T08:46:08.291Z,16.37
2019-05-15T08:48:41.310Z,18.35
2019-05-15T08:51:10.007Z,16.03
2019-05-15T08:53:38.308Z,16.13
2019-05-15T08:56:08.462Z,16.17
2019-05-15T08:58:38.234Z,17.00
2019-05-15T09:01:09.447Z,16.53
2019-05-15T09:03:38.052Z,17.47
2019-05-15T09:06:09.063Z,16.90
2019-05-15T09:08:39.489Z,16.33
2019-05-15T09:11:10.263Z,16.30
2019-05-15T09:13:43.752Z,16.67
2019-05-15T09:16:11.785Z,16.73
2019-05-15T09:18:39.881Z,15.43
2019-05-15T09:21:08.838Z,16.77
2019-05-15T09:23:38.732Z,15.90
2019-05-15T09:26:09.802Z,15.83
2019-05-15T09:28:39.153Z,15.63
2019-05-15T09:31:08.448Z,16.23
2019-05-15T09:33:44.612Z,16.53
2019-05-15T09:36:15.261Z,15.00
2019-05-15T09:38:49.097Z,16.13
2019-05-15T09:41:17.934Z,16.90
2019-05-15T09:43:48.356Z,16.30
2019-05-15T09:46:18.275Z,17.23
2019-05-15T09:48:50.479Z,17.03
2019-05-15T09:51:18.330Z,16.10
2019-05-15T09:53:48.433Z,17.03
2019-05-15T09:56:18.633Z,17.37
2019-05-15T09:58:48.615Z,16.47
2019-05-15T10:01:19.301Z,16.37
2019-05-15T10:03:48.454Z,15.97
2019-05-15T10:06:20.116Z,15.87
2019-05-15T10:08:48.992Z,16.63
2019-05-15T10:11:19.320Z,16.03
2019-05-15T10:13:46.489Z,14.93
2019-05-15T10:16:14.988Z,15.73
2019-05-15T10:18:43.346Z,16.70
2019-05-15T10:21:11.208Z,17.23
2019-05-15T10:23:42.338Z,16.50
2019-05-15T10:26:14.238Z,16.97
2019-05-15T10:28:41.864Z,16.83
2019-05-15T10:31:10.221Z,16.03
2019-05-15T10:33:39.266Z,15.90
2019-05-15T10:36:08.480Z,16.07
2019-05-15T10:38:38.959Z,14.80
2019-05-15T10:41:19.062Z,14.17
2019-05-15T10:43:55.998Z,12.50
2019-05-15T10:46:19.097Z,11.93
2019-05-15T10:48:49.315Z,10.80
2019-05-15T10:51:28.635Z,9.57
2019-05-15T10:53:59.419Z,8.17
2019-05-15T10:56:39.264Z,7.90
2019-05-15T10:59:14.668Z,7.87
2019-05-15T11:01:42.511Z,8.47
2019-05-15T11:04:19.884Z,8.80
2019-05-15T11:06:49.071Z,8.30
2019-05-15T11:09:24.593Z,8.47
2019-05-15T11:11:54.961Z,10.10
2019-05-15T11:14:24.154Z,10.20
2019-05-15T11:16:59.796Z,10.67
2019-05-15T11:19:43.149Z,11.33
2019-05-15T11:22:18.910Z,10.40
2019-05-15T11:24:52.468Z,11.10
2019-05-15T11:27:19.116Z,11.47
2019-05-15T11:30:03.685Z,11.47
2019-05-15T11:32:44.537Z,11.50
2019-05-15T11:35:18.920Z,12.37
2019-05-15T11:37:55.747Z,10.40
2019-05-15T11:40:38.893Z,10.73
2019-05-15T11:43:19.688Z,11.50
2019-05-15T11:45:50.750Z,11.03
2019-05-15T11:48:32.372Z,11.43
2019-05-15T11:51:09.213Z,11.30
2019-05-15T11:53:58.839Z,12.43
2019-05-15T11:56:39.461Z,12.37
2019-05-15T11:59:13.281Z,13.23
2019-05-15T12:01:50.653Z,12.20
2019-05-15T12:04:34.167Z,12.40
2019-05-15T12:07:11.483Z,11.10
2019-05-15T12:10:10.752Z,11.17
2019-05-15T12:12:39.723Z,11.13
2019-05-15T12:15:21.503Z,12.00
2019-05-15T12:17:50.864Z,12.07
2019-05-15T12:20:22.911Z,11.77
2019-05-15T12:22:59.401Z,12.70
2019-05-15T12:25:31.474Z,12.07
2019-05-15T12:27:59.912Z,12.20
2019-05-15T12:30:43.175Z,12.97
2019-05-15T12:33:11.636Z,12.20
2019-05-15T12:35:44.309Z,12.37
2019-05-15T12:38:24.650Z,11.93
2019-05-15T13:01:21.950Z,9.93
2019-05-15T13:03:57.834Z,10.20
2019-05-15T13:06:31.015Z,11.17
2019-05-15T13:09:00.806Z,11.23
2019-05-15T13:14:28.212Z,10.77
2019-05-15T13:17:42.108Z,10.90
2019-05-15T13:20:18.579Z,10.90
2019-05-15T13:25:15.663Z,9.37
2019-05-15T13:27:43.662Z,9.97
2019-05-15T13:30:11.756Z,10.30
2019-05-15T13:32:42.980Z,9.83
2019-05-15T13:35:11.730Z,9.50
2019-05-15T13:37:41.361Z,9.67
2019-05-15T13:40:18.455Z,9.07
2019-05-15T13:42:48.281Z,9.63
2019-05-15T13:45:39.024Z,9.57
2019-05-15T13:48:09.600Z,9.30
2019-05-15T13:50:40.283Z,9.90
2019-05-15T13:53:11.203Z,9.93
2019-05-15T13:55:42.494Z,9.23
2019-05-15T13:58:09.128Z,9.40
2019-05-15T14:00:39.119Z,9.07
2019-05-15T14:03:09.045Z,9.60
2019-05-15T14:05:38.304Z,9.47
2019-05-15T14:08:06.626Z,8.50
2019-05-15T14:10:38.721Z,9.00
2019-05-15T14:13:06.592Z,9.70
2019-05-15T14:15:45.163Z,8.47
2019-05-15T14:18:14.194Z,9.00
2019-05-15T14:20:42.027Z,9.47
2019-05-15T14:23:11.958Z,9.57
2019-05-15T14:25:42.207Z,10.03
2019-05-15T14:28:10.102Z,10.07
2019-05-15T14:30:37.846Z,9.83
2019-05-15T14:33:08.232Z,9.57
2019-05-15T14:35:48.428Z,8.40
2019-05-15T14:38:18.559Z,8.90
2019-05-15T14:40:48.204Z,8.50
2019-05-15T14:43:19.555Z,8.63
2019-05-15T14:45:49.632Z,8.67
2019-05-15T14:48:19.073Z,8.10
2019-05-15T14:50:47.689Z,8.67
2019-05-15T14:53:15.388Z,8.83
2019-05-15T14:55:44.381Z,10.00
2019-05-15T14:58:12.076Z,10.13
2019-05-15T15:00:41.930Z,10.70
2019-05-15T15:05:58.037Z,11.53
2019-05-15T15:08:25.664Z,11.97
2019-05-15T15:10:53.495Z,12.67
2019-05-15T15:13:21.260Z,13.47
2019-05-15T15:15:52.966Z,14.10
2019-05-15T15:18:20.879Z,14.67
2019-05-15T15:20:51.574Z,15.60
2019-05-15T15:23:19.350Z,15.33
2019-05-15T15:25:48.398Z,14.67
2019-05-15T15:28:18.917Z,15.43
2019-05-15T15:30:48.450Z,14.50
2019-05-15T15:33:15.832Z,15.60
2019-05-15T15:35:43.712Z,15.73
2019-05-15T15:38:13.408Z,16.53
2019-05-15T15:40:42.235Z,16.97
2019-05-15T15:43:10.034Z,17.67
2019-05-15T15:45:45.060Z,17.10
2019-05-15T15:48:13.086Z,16.43
2019-05-15T15:50:40.955Z,16.67
2019-05-15T15:53:09.229Z,17.53
2019-05-15T15:55:38.530Z,17.10
2019-05-15T15:58:08.845Z,17.83
2019-05-15T16:00:38.424Z,18.30
2019-05-15T16:03:08.365Z,18.10
2019-05-15T16:05:38.354Z,18.43
2019-05-15T16:08:08.524Z,18.70
2019-05-15T16:10:51.835Z,18.83
2019-05-15T16:13:20.225Z,18.53
2019-05-15T16:15:57.803Z,18.57
2019-05-15T16:18:25.939Z,19.27
2019-05-15T16:20:53.817Z,20.63
2019-05-15T16:23:22.841Z,20.57
2019-05-15T16:25:50.715Z,20.50
2019-05-15T16:28:18.717Z,21.47
2019-05-15T16:30:51.359Z,20.80
2019-05-15T16:33:18.433Z,22.37
2019-05-15T16:35:48.644Z,22.37
2019-05-15T16:38:19.249Z,21.53
2019-05-15T16:40:48.884Z,23.60
2019-05-15T16:43:17.799Z,23.67
2019-05-15T16:45:49.461Z,24.97
2019-05-15T16:48:15.699Z,25.20
2019-05-15T16:50:44.564Z,27.37
2019-05-15T16:53:34.074Z,27.90
2019-05-15T16:56:02.244Z,28.70
2019-05-15T16:58:30.309Z,28.43
2019-05-15T17:01:04.240Z,29.77
2019-05-15T17:03:33.641Z,32.03
2019-05-15T17:06:01.430Z,31.97
2019-05-15T17:08:32.069Z,32.67
2019-05-15T17:10:59.054Z,33.90
2019-05-15T17:13:28.715Z,32.20
2019-05-15T17:15:58.412Z,32.77
2019-05-15T17:18:26.901Z,31.77
2019-05-15T17:20:55.259Z,32.23
2019-05-15T17:23:23.371Z,31.57
2019-05-15T17:25:52.006Z,32.23
2019-05-15T17:28:20.015Z,32.13
2019-05-15T17:30:48.765Z,34.43
2019-05-15T17:33:18.465Z,35.10
2019-05-15T17:35:48.738Z,33.53
2019-05-15T17:38:18.249Z,31.77
2019-05-15T17:40:48.456Z,33.23
2019-05-15T17:43:18.229Z,31.57
2019-05-15T17:45:48.157Z,32.40
2019-05-15T17:48:19.352Z,32.40
2019-05-15T17:50:52.197Z,33.43
2019-05-15T17:53:24.086Z,33.70
2019-05-15T17:55:52.361Z,32.27
2019-05-15T17:58:23.604Z,32.20
2019-05-15T18:00:51.397Z,31.97
2019-05-15T18:03:19.252Z,32.73
2019-05-15T18:05:48.438Z,32.43
2019-05-15T18:08:16.394Z,32.37
2019-05-15T18:10:44.788Z,31.77
2019-05-15T18:13:12.656Z,31.53
2019-05-15T18:15:40.829Z,31.67
2019-05-15T18:18:09.554Z,30.67
2019-05-15T18:20:38.343Z,31.13
2019-05-15T18:23:08.433Z,31.43
2019-05-15T18:25:38.183Z,29.57
2019-05-15T18:28:08.047Z,30.37
2019-05-15T18:30:35.556Z,30.37
2019-05-15T18:33:03.342Z,29.83
2019-05-15T18:35:32.932Z,30.20
2019-05-15T18:38:00.660Z,30.33
2019-05-15T18:40:28.280Z,29.30
2019-05-15T18:42:59.366Z,29.57
2019-05-15T18:45:28.937Z,30.53
2019-05-15T18:47:58.693Z,30.00
2019-05-15T18:50:28.373Z,29.33
2019-05-15T18:52:58.411Z,28.53
2019-05-15T18:55:25.990Z,29.03
2019-05-15T18:57:53.692Z,29.07
2019-05-15T19:00:21.698Z,29.27
2019-05-15T19:02:51.558Z,28.87
2019-05-15T19:05:19.633Z,29.80
2019-05-15T19:07:50.575Z,28.90
2019-05-15T19:10:28.212Z,28.77
2019-05-15T19:13:02.133Z,30.67
2019-05-15T19:15:33.130Z,28.50
2019-05-15T19:18:10.798Z,29.23
2019-05-15T19:20:38.935Z,28.43
2019-05-15T19:23:07.983Z,28.73
2019-05-15T19:25:36.740Z,27.33
2019-05-15T19:28:08.253Z,27.97
2019-05-15T19:30:50.689Z,28.57
2019-05-15T19:33:34.412Z,28.20
2019-05-15T19:36:02.319Z,28.70
2019-05-15T19:38:37.647Z,30.00
2019-05-15T19:41:23.212Z,29.53
2019-05-15T19:43:58.130Z,30.07
2019-05-15T19:46:28.324Z,29.57
2019-05-15T19:48:58.882Z,29.67
2019-05-15T19:51:30.419Z,29.70
2019-05-15T19:54:09.310Z,32.03
2019-05-15T19:56:37.891Z,30.33
2019-05-15T19:59:05.508Z,30.07
2019-05-15T20:01:33.660Z,31.17
2019-05-15T20:04:01.500Z,31.43
2019-05-15T20:06:29.468Z,30.17
2019-05-15T20:09:00.163Z,31.07
2019-05-15T20:11:28.014Z,30.87
2019-05-15T20:13:55.672Z,31.23
2019-05-15T20:16:30.430Z,29.90
2019-05-15T20:18:58.274Z,30.23
2019-05-15T20:21:28.554Z,29.90
2019-05-15T20:23:58.022Z,30.80
2019-05-15T20:26:38.006Z,30.23
2019-05-15T20:29:06.143Z,31.00
2019-05-15T20:31:50.571Z,30.13
2019-05-15T20:34:18.511Z,29.70
2019-05-15T20:36:48.913Z,31.17
2019-05-15T20:39:19.714Z,30.73
2019-05-15T20:41:48.736Z,31.00
2019-05-15T20:44:20.572Z,31.90
2019-05-15T20:46:51.011Z,31.50
2019-05-15T20:49:18.599Z,31.63
2019-05-15T20:51:48.930Z,31.27
2019-05-15T20:54:16.832Z,32.80
2019-05-15T20:59:32.484Z,33.40
2019-05-15T21:02:00.379Z,33.73
2019-05-15T21:04:28.208Z,31.93
2019-05-15T21:06:56.078Z,33.00
2019-05-15T21:09:23.797Z,32.87
2019-05-15T21:11:55.585Z,32.07
2019-05-15T21:14:23.700Z,33.10
2019-05-15T21:16:51.470Z,33.07
2019-05-15T21:19:19.110Z,32.60
2019-05-15T21:21:47.959Z,31.67
2019-05-15T21:24:18.053Z,32.70
2019-05-15T21:26:48.936Z,34.13
2019-05-15T21:29:18.372Z,34.07
2019-05-15T21:31:49.190Z,34.20
2019-05-15T21:34:32.193Z,34.93
2019-05-15T21:36:48.337Z,34.50
2019-05-15T21:39:16.247Z,34.83
2019-05-15T21:41:44.573Z,36.13
2019-05-15T21:44:12.337Z,35.33
2019-05-15T21:46:41.766Z,33.93
2019-05-15T21:49:09.482Z,35.83
2019-05-15T21:51:38.432Z,35.50
2019-05-15T21:54:09.347Z,35.30
2019-05-15T21:56:38.596Z,33.73
2019-05-15T21:59:08.222Z,36.27
2019-05-15T22:01:36.103Z,34.27
2019-05-15T22:04:03.787Z,34.27
2019-05-15T22:06:31.621Z,33.70
2019-05-15T22:09:05.016Z,33.33
2019-05-15T22:11:33.074Z,34.83
2019-05-15T22:14:00.849Z,32.57
2019-05-15T22:16:29.937Z,33.97
2019-05-15T22:19:03.148Z,32.90
2019-05-15T22:21:31.465Z,33.00
2019-05-15T22:24:00.352Z,33.33
2019-05-15T22:26:28.982Z,32.40
2019-05-15T22:28:58.427Z,32.67
2019-05-15T22:31:28.746Z,33.10
2019-05-15T22:33:58.400Z,32.20
2019-05-15T22:36:28.766Z,31.20
2019-05-15T22:38:58.922Z,33.73
2019-05-15T22:41:27.945Z,32.77
2019-05-15T22:43:56.954Z,32.67
2019-05-15T22:46:24.614Z,31.63
2019-05-15T22:48:52.600Z,32.50
2019-05-15T22:51:20.416Z,32.63
2019-05-15T22:53:48.842Z,32.90
2019-05-15T22:56:18.228Z,31.93
2019-05-15T22:58:48.242Z,33.17
2019-05-15T23:01:18.598Z,32.83
2019-05-15T23:03:49.325Z,31.57
2019-05-15T23:06:18.094Z,32.73
2019-05-15T23:08:48.686Z,31.67
2019-05-15T23:11:18.332Z,32.67
2019-05-15T23:13:48.217Z,32.50
2019-05-15T23:16:18.220Z,32.30
2019-05-15T23:18:48.491Z,31.80
2019-05-15T23:21:19.066Z,30.97
2019-05-15T23:23:48.680Z,32.00
2019-05-15T23:26:16.664Z,31.63
2019-05-15T23:28:44.828Z,31.73
2019-05-15T23:31:12.713Z,31.70
2019-05-15T23:33:40.572Z,31.47
2019-05-15T23:36:08.213Z,30.27
2019-05-15T23:38:35.939Z,31.00
2019-05-15T23:41:08.263Z,30.97
2019-05-15T23:43:36.209Z,29.93
2019-05-15T23:46:09.018Z,31.23
2019-05-15T23:48:40.419Z,31.20
2019-05-15T23:51:09.744Z,29.93
2019-05-15T23:53:39.848Z,29.97
2019-05-15T23:56:09.339Z,30.00
2019-05-15T23:58:38.104Z,29.60
